createdAt,value
2022-11-08T00:01:02.792Z,5.90
2022-11-08T00:06:23.309Z,5.80
2022-11-08T00:11:43.548Z,5.80
2022-11-08T00:16:45.284Z,5.80
2022-11-08T00:21:47.013Z,5.80
2022-11-08T00:26:48.760Z,5.80
2022-11-08T00:31:50.560Z,5.70
2022-11-08T00:36:53.593Z,5.70
2022-11-08T00:41:55.339Z,5.80
2022-11-08T00:46:57.071Z,5.70
2022-11-08T00:51:58.879Z,5.70
2022-11-08T00:57:00.672Z,5.60
2022-11-08T01:02:02.569Z,5.60
2022-11-08T01:07:04.376Z,5.60
2022-11-08T01:12:06.210Z,5.60
2022-11-08T01:17:07.948Z,5.50
2022-11-08T01:22:09.724Z,5.50
2022-11-08T01:27:11.448Z,5.60
2022-11-08T01:32:13.192Z,5.60
2022-11-08T01:37:15.460Z,5.40
2022-11-08T01:42:17.237Z,5.40
2022-11-08T01:47:18.994Z,5.40
2022-11-08T01:52:37.420Z,5.40
2022-11-08T01:58:00.952Z,5.40
2022-11-08T02:03:05.535Z,5.30
2022-11-08T02:08:20.178Z,5.30
2022-11-08T02:13:25.466Z,5.20
2022-11-08T02:18:30.142Z,5.30
2022-11-08T02:23:55.313Z,5.20
2022-11-08T02:28:57.435Z,5.20
2022-11-08T02:33:59.850Z,5.30
2022-11-08T02:39:02.241Z,5.20
2022-11-08T02:44:04.138Z,5.20
2022-11-08T02:49:05.897Z,5.10
2022-11-08T02:54:07.712Z,5.10
2022-11-08T02:59:09.544Z,5.10
2022-11-08T03:04:11.512Z,5.00
2022-11-08T03:09:13.824Z,5.00
2022-11-08T03:14:15.613Z,5.00
2022-11-08T03:19:17.331Z,5.00
2022-11-08T03:24:19.083Z,5.00
2022-11-08T03:29:20.850Z,4.90
2022-11-08T03:34:22.788Z,5.00
2022-11-08T03:39:24.538Z,5.00
2022-11-08T03:44:26.313Z,4.90
2022-11-08T03:49:28.152Z,4.90
2022-11-08T03:54:29.859Z,4.90
2022-11-08T03:59:31.578Z,4.90
2022-11-08T04:04:33.339Z,4.90
2022-11-08T04:09:35.062Z,4.90
2022-11-08T04:14:55.265Z,4.80
2022-11-08T04:20:15.383Z,4.80
2022-11-08T04:25:17.194Z,4.90
2022-11-08T04:30:18.944Z,4.80
2022-11-08T04:35:20.665Z,4.70
2022-11-08T04:40:22.399Z,4.70
2022-11-08T04:45:24.140Z,4.60
2022-11-08T04:50:25.995Z,4.60
2022-11-08T04:55:27.741Z,4.60
2022-11-08T05:00:29.668Z,4.70
2022-11-08T05:05:31.384Z,4.60
2022-11-08T05:10:33.113Z,4.60
2022-11-08T05:15:36.247Z,4.50
2022-11-08T05:20:56.549Z,4.50
2022-11-08T05:25:58.391Z,4.60
2022-11-08T05:31:00.359Z,4.60
2022-11-08T05:36:07.734Z,4.60
2022-11-08T05:41:12.793Z,4.60
2022-11-08T05:46:15.876Z,4.60
2022-11-08T05:51:18.669Z,4.60
2022-11-08T05:56:20.405Z,4.60
2022-11-08T06:01:22.102Z,4.60
2022-11-08T06:06:23.957Z,4.50
2022-11-08T06:11:27.207Z,4.50
2022-11-08T06:16:28.933Z,4.50
2022-11-08T06:21:30.843Z,4.50
2022-11-08T06:26:32.652Z,4.50
2022-11-08T06:31:39.333Z,4.50
2022-11-08T06:36:44.573Z,4.50
2022-11-08T06:41:46.299Z,4.60
2022-11-08T06:46:48.099Z,4.60
2022-11-08T06:51:50.761Z,4.70
2022-11-08T06:56:55.592Z,4.70
2022-11-08T07:01:57.595Z,4.70
2022-11-08T07:06:59.369Z,4.90
2022-11-08T07:12:01.216Z,5.10
2022-11-08T07:17:03.020Z,5.40
2022-11-08T07:22:04.788Z,5.60
2022-11-08T07:27:06.585Z,5.80
2022-11-08T07:32:08.353Z,6.10
2022-11-08T07:37:10.169Z,6.40
2022-11-08T07:42:11.947Z,6.60
2022-11-08T07:47:15.747Z,6.70
2022-11-08T07:52:17.483Z,7.00
2022-11-08T07:57:19.384Z,7.20
2022-11-08T08:02:21.195Z,7.40
2022-11-08T08:07:23.125Z,7.70
2022-11-08T08:12:26.022Z,7.90
2022-11-08T08:17:27.776Z,8.20
2022-11-08T08:22:29.710Z,8.40
2022-11-08T08:27:31.488Z,8.60
2022-11-08T08:32:34.276Z,8.70
2022-11-08T08:37:36.167Z,8.90
2022-11-08T08:42:37.925Z,9.10
2022-11-08T08:47:39.657Z,9.20
2022-11-08T08:52:41.389Z,9.20
2022-11-08T08:57:47.785Z,9.40
2022-11-08T09:02:50.179Z,9.50
2022-11-08T09:07:55.286Z,9.60
2022-11-08T09:12:57.077Z,9.60
2022-11-08T09:17:59.084Z,9.70
2022-11-08T09:23:04.380Z,9.80
2022-11-08T09:28:06.418Z,9.90
2022-11-08T09:33:08.265Z,10.00
2022-11-08T09:38:10.031Z,10.30
2022-11-08T09:43:50.429Z,10.40
2022-11-08T09:48:53.503Z,10.20
2022-11-08T09:53:58.829Z,10.30
2022-11-08T09:59:18.745Z,10.30
2022-11-08T10:04:28.375Z,10.40
2022-11-08T10:09:33.106Z,10.60
2022-11-08T10:14:54.373Z,10.60
2022-11-08T10:20:19.956Z,10.60
2022-11-08T10:25:32.911Z,10.80
2022-11-08T10:30:39.399Z,10.90
2022-11-08T10:35:49.537Z,11.00
2022-11-08T10:41:08.306Z,11.00
2022-11-08T10:46:43.692Z,11.00
2022-11-08T10:51:47.453Z,11.00
2022-11-08T10:56:58.512Z,11.10
2022-11-08T11:02:00.925Z,11.40
2022-11-08T11:07:25.689Z,11.60
2022-11-08T11:12:27.416Z,11.70
2022-11-08T11:17:35.730Z,11.80
2022-11-08T11:22:46.377Z,12.10
2022-11-08T11:27:58.358Z,12.10
2022-11-08T11:33:08.933Z,12.20
2022-11-08T11:38:36.854Z,12.30
2022-11-08T11:44:02.183Z,12.20
2022-11-08T11:49:12.380Z,12.30
2022-11-08T11:54:16.389Z,12.60
2022-11-08T11:59:36.627Z,12.80
2022-11-08T12:04:47.512Z,13.10
2022-11-08T12:10:21.181Z,13.20
2022-11-08T12:15:38.531Z,13.40
2022-11-08T12:21:34.561Z,13.60
2022-11-08T12:26:53.162Z,13.70
2022-11-08T12:32:11.780Z,13.90
2022-11-08T12:37:22.847Z,13.80
2022-11-08T12:42:45.777Z,13.80
2022-11-08T12:48:12.247Z,13.70
2022-11-08T12:53:35.707Z,13.50
2022-11-08T12:58:41.524Z,13.50
2022-11-08T13:03:43.586Z,13.50
2022-11-08T13:09:03.589Z,13.40
2022-11-08T13:14:05.586Z,13.40
2022-11-08T13:19:28.130Z,13.30
2022-11-08T13:24:49.539Z,13.20
2022-11-08T13:29:52.866Z,13.20
2022-11-08T13:34:59.900Z,13.20
2022-11-08T13:40:25.984Z,13.10
2022-11-08T13:45:31.909Z,13.00
2022-11-08T13:50:33.929Z,12.90
2022-11-08T13:55:45.317Z,12.80
2022-11-08T14:00:47.238Z,12.70
2022-11-08T14:05:49.935Z,12.50
2022-11-08T14:11:24.456Z,12.40
2022-11-08T14:16:32.401Z,12.30
2022-11-08T14:21:34.805Z,12.20
2022-11-08T14:26:46.833Z,12.00
2022-11-08T14:32:00.211Z,11.90
2022-11-08T14:37:02.841Z,11.80
2022-11-08T14:42:13.173Z,11.60
2022-11-08T14:47:42.266Z,11.40
2022-11-08T14:52:44.476Z,11.10
2022-11-08T14:57:47.008Z,11.00
2022-11-08T15:03:00.147Z,10.70
2022-11-08T15:08:04.233Z,10.60
2022-11-08T15:13:10.869Z,10.40
2022-11-08T15:18:15.676Z,10.30
2022-11-08T15:23:49.091Z,10.10
2022-11-08T15:29:05.933Z,9.90
2022-11-08T15:34:39.691Z,9.80
2022-11-08T15:39:42.513Z,9.60
2022-11-08T15:45:21.804Z,9.40
2022-11-08T15:50:26.120Z,9.20
2022-11-08T15:55:29.594Z,9.00
2022-11-08T16:00:36.207Z,8.80
2022-11-08T16:05:38.137Z,8.70
2022-11-08T16:10:46.003Z,8.60
2022-11-08T16:15:48.126Z,8.50
2022-11-08T16:20:49.872Z,8.40
2022-11-08T16:25:54.803Z,8.30
2022-11-08T16:30:57.129Z,8.20
2022-11-08T16:36:01.257Z,8.10
2022-11-08T16:41:04.395Z,8.10
2022-11-08T16:46:07.462Z,8.00
2022-11-08T16:51:16.981Z,7.90
2022-11-08T16:56:18.889Z,7.80
2022-11-08T17:01:24.523Z,7.70
2022-11-08T17:06:26.380Z,7.60
2022-11-08T17:11:28.158Z,7.50
2022-11-08T17:16:30.144Z,7.50
2022-11-08T17:21:44.686Z,7.40
2022-11-08T17:26:47.369Z,7.40
2022-11-08T17:31:49.538Z,7.40
2022-11-08T17:36:52.813Z,7.50
2022-11-08T17:41:54.645Z,7.40
2022-11-08T17:46:56.464Z,7.40
2022-11-08T17:51:58.290Z,7.40
2022-11-08T17:57:00.190Z,7.40
2022-11-08T18:02:02.034Z,7.30
2022-11-08T18:07:03.908Z,7.40
2022-11-08T18:12:05.941Z,7.40
2022-11-08T18:17:07.703Z,7.40
2022-11-08T18:22:09.803Z,7.40
2022-11-08T18:27:12.644Z,7.40
2022-11-08T18:32:14.378Z,7.50
2022-11-08T18:37:16.156Z,7.50
2022-11-08T18:42:17.866Z,7.50
2022-11-08T18:47:20.053Z,7.50
2022-11-08T18:52:21.760Z,7.50
2022-11-08T18:57:23.565Z,7.50
2022-11-08T19:02:25.336Z,7.40
2022-11-08T19:07:27.611Z,7.40
2022-11-08T19:12:29.897Z,7.30
2022-11-08T19:17:32.872Z,7.20
2022-11-08T19:22:34.639Z,7.20
2022-11-08T19:27:36.405Z,7.10
2022-11-08T19:32:38.126Z,7.00
2022-11-08T19:37:40.068Z,6.90
2022-11-08T19:42:41.840Z,6.90
2022-11-08T19:47:43.558Z,6.90
2022-11-08T19:52:45.307Z,6.90
2022-11-08T19:57:47.412Z,6.90
2022-11-08T20:02:50.844Z,6.90
2022-11-08T20:07:52.549Z,7.00
2022-11-08T20:12:54.267Z,7.00
2022-11-08T20:17:56.024Z,7.10
2022-11-08T20:22:57.796Z,7.10
2022-11-08T20:28:00.308Z,7.10
2022-11-08T20:33:02.013Z,7.20
2022-11-08T20:38:04.454Z,7.20
2022-11-08T20:43:06.182Z,7.20
2022-11-08T20:48:07.933Z,7.30
2022-11-08T20:53:09.712Z,7.30
2022-11-08T20:58:11.434Z,7.30
2022-11-08T21:03:18.657Z,7.30
2022-11-08T21:13:44.688Z,7.20
2022-11-08T21:18:46.461Z,7.20
2022-11-08T21:23:48.916Z,7.10
2022-11-08T21:28:52.050Z,7.10
2022-11-08T21:33:53.832Z,7.10
2022-11-08T21:38:55.651Z,7.10
2022-11-08T21:43:59.448Z,7.10
2022-11-08T21:49:02.019Z,7.00
2022-11-08T21:54:04.697Z,6.90
2022-11-08T21:59:06.480Z,6.90
2022-11-08T22:04:08.559Z,6.70
2022-11-08T22:09:10.279Z,6.70
2022-11-08T22:14:12.228Z,6.60
2022-11-08T22:19:14.464Z,6.60
2022-11-08T22:24:20.208Z,6.50
2022-11-08T22:29:22.211Z,6.40
2022-11-08T22:34:23.931Z,6.40
2022-11-08T22:39:25.768Z,6.20
2022-11-08T22:44:27.545Z,6.10
2022-11-08T22:49:29.262Z,6.10
2022-11-08T22:54:31.780Z,6.10
2022-11-08T22:59:33.661Z,6.00
2022-11-08T23:04:35.355Z,6.00
2022-11-08T23:09:37.125Z,6.00
2022-11-08T23:14:57.433Z,6.00
2022-11-08T23:20:17.802Z,6.00
2022-11-08T23:25:19.530Z,5.90
2022-11-08T23:30:39.778Z,5.80
2022-11-08T23:36:01.442Z,5.80
2022-11-08T23:41:22.270Z,5.60
2022-11-08T23:46:24.137Z,5.60
2022-11-08T23:51:26.065Z,5.60
2022-11-08T23:56:28.758Z,5.50
